Weather at Boca Raton Airport

Public forecast

Using degrees Fahrenheit for public forecast. Weather courtesy of forecast.io.

Current aviation weather report (METAR) for Boca Raton Airport

Report is more than 2 hours old.

2024/07/25 17:53 (retrieved 2 hours ago)

KBCT 251753Z 12010KT 10SM SCT025 34/25 A3013

Closest aviation forecast (TAF) to Boca Raton Airport

Closest forecast is Fort Lauderdale Executive Airport, 11.4 nm (21.1 km) SSW.

2024/07/25 18:22 (retrieved 2 hours ago)

TAF KFXE 251720Z 2518/2618 11010G17KT P6SM FEW030 SCT050 FM252300 11008KT P6SM FEW030 SCT250 FM260400 VRB04KT P6SM SCT030 SCT250 FM261200 11009KT P6SM VCSH SCT025 BKN050